createdAt,value
2023-03-04T00:04:55.000Z,4.97
2023-03-04T00:09:54.000Z,4.90
2023-03-04T00:14:54.000Z,4.88
2023-03-04T00:20:11.000Z,4.93
2023-03-04T00:25:09.000Z,4.82
2023-03-04T00:29:54.000Z,4.84
2023-03-04T00:35:10.000Z,4.89
2023-03-04T00:39:55.000Z,4.78
2023-03-04T00:44:56.000Z,4.78
2023-03-04T01:09:56.000Z,4.88
2023-03-04T01:15:10.000Z,4.81
2023-03-04T01:19:55.000Z,4.75
2023-03-04T01:24:54.000Z,4.68
2023-03-04T01:29:54.000Z,4.68
2023-03-04T01:34:54.000Z,4.68
2023-03-04T01:39:54.000Z,4.65
2023-03-04T01:44:54.000Z,4.67
2023-03-04T01:49:55.000Z,4.63
2023-03-04T01:55:01.000Z,4.69
2023-03-04T01:59:46.000Z,4.71
2023-03-04T02:05:10.000Z,4.62
2023-03-04T02:10:01.000Z,4.68
2023-03-04T02:15:01.000Z,4.67
2023-03-04T02:20:01.000Z,4.64
2023-03-04T02:25:00.000Z,4.61
2023-03-04T02:30:01.000Z,4.61
2023-03-04T02:35:02.000Z,4.58
2023-03-04T02:40:01.000Z,4.51
2023-03-04T02:45:02.000Z,4.47
2023-03-04T02:50:02.000Z,4.47
2023-03-04T02:54:58.000Z,4.44
2023-03-04T03:00:09.000Z,4.38
2023-03-04T03:05:01.000Z,4.38
2023-03-04T03:10:09.000Z,4.35
2023-03-04T03:15:05.000Z,4.34
2023-03-04T03:20:02.000Z,4.34
2023-03-04T03:25:01.000Z,4.38
2023-03-04T03:30:01.000Z,4.41
2023-03-04T03:35:03.000Z,4.38
2023-03-04T03:40:02.000Z,4.46
2023-03-04T03:45:01.000Z,4.44
2023-03-04T03:50:01.000Z,4.33
2023-03-04T03:55:01.000Z,4.34
2023-03-04T04:00:01.000Z,4.26
2023-03-04T04:05:01.000Z,4.26
2023-03-04T04:10:01.000Z,4.17
2023-03-04T04:15:01.000Z,4.20
2023-03-04T04:20:01.000Z,4.14
2023-03-04T04:25:00.000Z,4.01
2023-03-04T04:30:00.000Z,4.04
2023-03-04T04:35:01.000Z,4.08
2023-03-04T04:40:01.000Z,4.02
2023-03-04T04:45:01.000Z,4.01
2023-03-04T04:50:01.000Z,3.95
2023-03-04T04:55:01.000Z,3.95
2023-03-04T05:00:01.000Z,3.95
2023-03-04T05:05:00.000Z,3.87
2023-03-04T05:10:00.000Z,3.78
2023-03-04T05:15:01.000Z,3.77
2023-03-04T05:20:01.000Z,3.65
2023-03-04T05:25:15.000Z,3.49
2023-03-04T05:30:01.000Z,3.44
2023-03-04T05:35:01.000Z,3.45
2023-03-04T05:40:01.000Z,3.47
2023-03-04T05:45:01.000Z,3.40
2023-03-04T05:50:00.000Z,3.26
2023-03-04T05:55:01.000Z,3.14
2023-03-04T06:00:05.000Z,2.98
2023-03-04T06:05:05.000Z,2.94
2023-03-04T06:10:02.000Z,2.95
2023-03-04T06:15:01.000Z,2.90
2023-03-04T06:20:02.000Z,2.82
2023-03-04T06:25:03.000Z,2.72
2023-03-04T06:30:01.000Z,2.55
2023-03-04T06:35:07.000Z,2.47
2023-03-04T06:40:02.000Z,2.52
2023-03-04T06:45:00.000Z,2.43
2023-03-04T06:50:01.000Z,2.54
2023-03-04T06:55:00.000Z,2.50
2023-03-04T07:00:00.000Z,2.57
2023-03-04T07:05:00.000Z,2.64
2023-03-04T07:10:01.000Z,2.78
2023-03-04T07:15:00.000Z,2.90
2023-03-04T07:20:01.000Z,3.11
2023-03-04T07:25:00.000Z,3.26
2023-03-04T07:30:01.000Z,3.55
2023-03-04T07:35:01.000Z,3.89
2023-03-04T07:40:01.000Z,4.37
2023-03-04T07:45:01.000Z,5.13
2023-03-04T07:50:01.000Z,5.82
2023-03-04T07:55:00.000Z,6.41
2023-03-04T08:00:01.000Z,6.96
2023-03-04T08:05:01.000Z,7.16
2023-03-04T08:10:00.000Z,7.18
2023-03-04T08:15:00.000Z,7.46
2023-03-04T08:20:00.000Z,7.81
2023-03-04T08:25:01.000Z,7.92
2023-03-04T08:30:00.000Z,8.08
2023-03-04T08:35:01.000Z,8.02
2023-03-04T08:40:01.000Z,7.86
2023-03-04T08:45:01.000Z,7.87
2023-03-04T08:50:01.000Z,8.11
2023-03-04T08:55:01.000Z,8.33
2023-03-04T09:00:01.000Z,8.81
2023-03-04T09:05:01.000Z,9.24
2023-03-04T09:10:01.000Z,9.44
2023-03-04T09:15:01.000Z,9.11
2023-03-04T09:20:01.000Z,9.41
2023-03-04T09:25:01.000Z,9.48
2023-03-04T09:30:01.000Z,10.04
2023-03-04T09:35:01.000Z,10.55
2023-03-04T09:40:01.000Z,10.50
2023-03-04T09:45:01.000Z,10.09
2023-03-04T09:50:01.000Z,10.27
2023-03-04T09:55:01.000Z,10.51
2023-03-04T10:00:01.000Z,10.18
2023-03-04T10:05:01.000Z,10.27
2023-03-04T10:10:01.000Z,10.04
2023-03-04T10:15:01.000Z,10.26
2023-03-04T10:20:01.000Z,10.56
2023-03-04T10:25:01.000Z,10.71
2023-03-04T10:30:01.000Z,11.05
2023-03-04T10:35:01.000Z,10.95
2023-03-04T10:40:01.000Z,11.29
2023-03-04T10:45:01.000Z,11.54
2023-03-04T10:50:01.000Z,11.56
2023-03-04T10:55:01.000Z,11.41
2023-03-04T11:00:01.000Z,11.21
2023-03-04T11:05:01.000Z,11.22
2023-03-04T11:10:01.000Z,11.29
2023-03-04T11:15:01.000Z,11.28
2023-03-04T11:20:01.000Z,11.14
2023-03-04T11:25:01.000Z,11.09
2023-03-04T11:30:01.000Z,11.23
2023-03-04T11:35:01.000Z,11.22
2023-03-04T11:40:01.000Z,11.12
2023-03-04T11:45:01.000Z,11.17
2023-03-04T11:50:01.000Z,10.94
2023-03-04T11:55:02.000Z,10.88
2023-03-04T12:00:03.000Z,11.21
2023-03-04T12:05:01.000Z,11.05
2023-03-04T12:10:01.000Z,10.94
2023-03-04T12:15:01.000Z,11.09
2023-03-04T12:19:37.000Z,11.13
2023-03-04T12:25:01.000Z,11.04
2023-03-04T12:30:01.000Z,11.03
2023-03-04T12:35:01.000Z,10.78
2023-03-04T12:40:01.000Z,10.75
2023-03-04T12:45:01.000Z,10.70
2023-03-04T12:50:01.000Z,10.83
2023-03-04T12:55:01.000Z,10.69
2023-03-04T13:00:03.000Z,10.63
2023-03-04T13:05:01.000Z,10.67
2023-03-04T13:10:01.000Z,10.63
2023-03-04T13:15:01.000Z,10.52
2023-03-04T13:20:01.000Z,10.71
2023-03-04T13:25:01.000Z,10.85
2023-03-04T13:30:01.000Z,10.70
2023-03-04T13:35:01.000Z,10.70
2023-03-04T13:40:01.000Z,10.95
2023-03-04T13:45:01.000Z,10.88
2023-03-04T13:50:01.000Z,10.88
2023-03-04T13:55:01.000Z,10.84
2023-03-04T14:00:01.000Z,10.78
2023-03-04T14:05:01.000Z,11.03
2023-03-04T14:10:01.000Z,11.00
2023-03-04T14:15:01.000Z,10.85
2023-03-04T14:20:01.000Z,10.79
2023-03-04T14:25:01.000Z,10.92
2023-03-04T14:30:01.000Z,10.83
2023-03-04T14:35:01.000Z,10.69
2023-03-04T14:40:01.000Z,10.59
2023-03-04T14:45:01.000Z,10.60
2023-03-04T14:50:01.000Z,10.65
2023-03-04T14:55:01.000Z,10.54
2023-03-04T15:00:01.000Z,10.55
2023-03-04T15:05:01.000Z,10.63
2023-03-04T15:10:01.000Z,10.60
2023-03-04T15:15:01.000Z,10.56
2023-03-04T15:20:01.000Z,10.51
2023-03-04T15:25:01.000Z,10.35
2023-03-04T15:30:01.000Z,10.19
2023-03-04T15:35:01.000Z,10.14
2023-03-04T15:40:01.000Z,10.05
2023-03-04T15:45:01.000Z,9.99
2023-03-04T15:50:01.000Z,9.88
2023-03-04T15:55:01.000Z,9.81
2023-03-04T16:00:01.000Z,9.67
2023-03-04T16:05:01.000Z,9.53
2023-03-04T16:10:01.000Z,9.35
2023-03-04T16:15:01.000Z,9.15
2023-03-04T16:20:01.000Z,9.06
2023-03-04T16:25:01.000Z,8.91
2023-03-04T16:30:01.000Z,8.68
2023-03-04T16:35:01.000Z,8.50
2023-03-04T16:40:01.000Z,8.32
2023-03-04T16:45:01.000Z,8.17
2023-03-04T16:50:01.000Z,7.93
2023-03-04T16:55:01.000Z,7.78
2023-03-04T17:00:01.000Z,7.53
2023-03-04T17:05:01.000Z,7.34
2023-03-04T17:10:01.000Z,7.09
2023-03-04T17:15:01.000Z,6.84
2023-03-04T17:20:01.000Z,6.60
2023-03-04T17:25:01.000Z,6.37
2023-03-04T17:30:01.000Z,6.07
2023-03-04T17:35:01.000Z,5.96
2023-03-04T17:40:01.000Z,5.80
2023-03-04T17:45:01.000Z,5.65
2023-03-04T17:50:01.000Z,5.42
2023-03-04T17:55:01.000Z,5.23
2023-03-04T18:00:01.000Z,5.15
2023-03-04T18:05:01.000Z,4.94
2023-03-04T18:10:01.000Z,4.78
2023-03-04T18:15:01.000Z,4.62
2023-03-04T18:20:01.000Z,4.57
2023-03-04T18:25:02.000Z,4.31
2023-03-04T18:30:01.000Z,4.24
2023-03-04T18:35:01.000Z,4.21
2023-03-04T18:40:01.000Z,4.20
2023-03-04T18:45:01.000Z,4.09
2023-03-04T18:50:01.000Z,4.04
2023-03-04T18:55:01.000Z,4.15
2023-03-04T19:00:01.000Z,4.10
2023-03-04T19:05:01.000Z,4.05
2023-03-04T19:10:01.000Z,3.89
2023-03-04T19:15:01.000Z,3.80
2023-03-04T19:20:01.000Z,3.77
2023-03-04T19:25:01.000Z,3.69
2023-03-04T19:30:02.000Z,3.55
2023-03-04T19:35:01.000Z,3.42
2023-03-04T19:40:01.000Z,3.41
2023-03-04T19:45:02.000Z,3.41
2023-03-04T19:50:01.000Z,3.45
2023-03-04T19:55:01.000Z,3.38
2023-03-04T20:00:01.000Z,3.30
2023-03-04T20:05:01.000Z,3.24
2023-03-04T20:10:01.000Z,3.13
2023-03-04T20:15:01.000Z,3.12
2023-03-04T20:20:01.000Z,3.11
2023-03-04T20:25:01.000Z,3.02
2023-03-04T20:30:01.000Z,2.90
2023-03-04T20:35:01.000Z,2.84
2023-03-04T20:40:02.000Z,2.69
2023-03-04T20:45:01.000Z,2.54
2023-03-04T20:50:01.000Z,2.53
2023-03-04T20:55:01.000Z,2.59
2023-03-04T21:00:01.000Z,2.64
2023-03-04T21:05:01.000Z,2.47
2023-03-04T21:10:01.000Z,2.35
2023-03-04T21:15:01.000Z,2.30
2023-03-04T21:20:01.000Z,2.26
2023-03-04T21:25:01.000Z,2.20
2023-03-04T21:30:01.000Z,2.20
2023-03-04T21:35:01.000Z,2.36
2023-03-04T21:40:01.000Z,2.40
2023-03-04T21:45:01.000Z,2.45
2023-03-04T21:50:01.000Z,2.50
2023-03-04T21:55:01.000Z,2.44
2023-03-04T22:00:01.000Z,2.43
2023-03-04T22:05:01.000Z,2.30
2023-03-04T22:10:01.000Z,2.07
2023-03-04T22:15:01.000Z,2.00
2023-03-04T22:20:01.000Z,1.85
2023-03-04T22:25:01.000Z,1.86
2023-03-04T22:30:01.000Z,1.82
2023-03-04T22:35:01.000Z,1.72
2023-03-04T22:40:01.000Z,1.65
2023-03-04T22:45:01.000Z,1.58
2023-03-04T22:50:01.000Z,1.54
2023-03-04T22:55:01.000Z,1.45
2023-03-04T23:00:01.000Z,1.34
2023-03-04T23:05:01.000Z,1.42
2023-03-04T23:10:01.000Z,1.54
2023-03-04T23:15:01.000Z,1.58
2023-03-04T23:20:01.000Z,1.56
2023-03-04T23:25:01.000Z,1.55
2023-03-04T23:30:01.000Z,1.53
2023-03-04T23:35:01.000Z,1.54
2023-03-04T23:40:01.000Z,1.58
2023-03-04T23:45:01.000Z,1.58
2023-03-04T23:50:01.000Z,1.52
2023-03-04T23:55:01.000Z,1.51
